Sunningdale, United Kingdom
Current Conditions -  °F | °C
As of 4:50 PM on Tuesday 27 Jan 2015 (Local Time) from EGLF Reporting Station
Broken Clouds Broken Clouds  
Wind Chill: 40°   Ceiling: 2200
Heat Index: 45°   Visibility: 6mi
Dew Point: 37°   Wind: 9mph
Humidity: 76%   Direction: 250°WSW
Pressure: 30.27"   Gusts: NA
Location:  51.38°N, 0.62°W
Report Text: EGLF 271650Z 25008KT 9999 BKN022 07/03 Q1025
Loading
Personal Weather Stations






























Interactive Weather Map New forecast layout! Learn more

10-Day Weather Forecast

Advertisements
Track Severe Weather on mobile